createdAt,value
2018-11-07T00:01:08.249Z,11.90
2018-11-07T00:03:35.688Z,12.93
2018-11-07T00:06:03.069Z,11.83
2018-11-07T00:08:30.505Z,11.87
2018-11-07T00:10:57.918Z,11.60
2018-11-07T00:13:25.272Z,12.37
2018-11-07T00:15:52.645Z,12.00
2018-11-07T00:18:20.053Z,12.40
2018-11-07T00:20:47.429Z,12.47
2018-11-07T00:23:14.801Z,12.73
2018-11-07T00:25:42.248Z,12.07
2018-11-07T00:28:09.617Z,12.93
2018-11-07T00:30:37.005Z,13.80
2018-11-07T00:33:04.549Z,12.90
2018-11-07T00:35:31.908Z,12.50
2018-11-07T00:37:59.281Z,13.40
2018-11-07T00:40:26.695Z,11.83
2018-11-07T00:42:54.101Z,12.70
2018-11-07T00:45:21.476Z,12.27
2018-11-07T00:47:48.891Z,11.50
2018-11-07T00:50:18.297Z,11.63
2018-11-07T00:52:45.973Z,12.40
2018-11-07T00:55:14.034Z,13.77
2018-11-07T00:57:41.674Z,12.70
2018-11-07T01:00:10.821Z,13.40
2018-11-07T01:02:38.236Z,13.10
2018-11-07T01:05:06.389Z,14.13
2018-11-07T01:07:33.757Z,13.70
2018-11-07T01:10:01.191Z,12.93
2018-11-07T01:12:28.585Z,11.73
2018-11-07T01:14:55.963Z,12.90
2018-11-07T01:17:23.401Z,12.07
2018-11-07T01:19:50.786Z,11.50
2018-11-07T01:22:18.202Z,11.47
2018-11-07T01:24:45.598Z,13.60
2018-11-07T01:27:12.974Z,13.10
2018-11-07T01:29:40.356Z,13.23
2018-11-07T01:32:07.742Z,14.80
2018-11-07T01:34:35.109Z,14.60
2018-11-07T01:37:02.488Z,13.33
2018-11-07T01:39:29.902Z,28.30
2018-11-07T01:41:57.366Z,26.07
2018-11-07T01:44:25.070Z,15.53
2018-11-07T01:46:52.494Z,13.93
2018-11-07T01:49:19.880Z,12.77
2018-11-07T01:51:47.269Z,12.90
2018-11-07T01:54:14.705Z,13.70
2018-11-07T01:56:42.069Z,14.73
2018-11-07T01:59:09.457Z,13.27
2018-11-07T02:01:36.878Z,17.97
2018-11-07T02:04:04.349Z,18.10
2018-11-07T02:06:31.721Z,18.67
2018-11-07T02:08:59.102Z,15.53
2018-11-07T02:11:26.486Z,15.23
2018-11-07T02:13:53.841Z,13.37
2018-11-07T02:16:21.282Z,12.57
2018-11-07T02:18:48.641Z,13.00
2018-11-07T02:21:15.993Z,13.80
2018-11-07T02:23:43.424Z,12.80
2018-11-07T02:26:10.883Z,22.20
2018-11-07T02:28:38.260Z,23.47
2018-11-07T02:31:05.666Z,16.37
2018-11-07T02:33:33.058Z,16.27
2018-11-07T02:36:00.447Z,21.57
2018-11-07T02:38:27.833Z,28.17
2018-11-07T02:40:55.254Z,22.30
2018-11-07T02:43:22.653Z,15.53
2018-11-07T02:49:06.941Z,13.73
2018-11-07T02:51:34.336Z,14.20
2018-11-07T02:54:02.371Z,14.93
2018-11-07T02:56:30.101Z,19.40
2018-11-07T02:58:57.873Z,18.70
2018-11-07T03:01:25.620Z,19.83
2018-11-07T03:03:53.136Z,18.97
2018-11-07T03:06:20.564Z,19.87
2018-11-07T03:08:47.937Z,18.13
2018-11-07T03:11:15.393Z,18.50
2018-11-07T03:13:42.779Z,20.17
2018-11-07T03:16:10.160Z,20.23
2018-11-07T03:18:37.596Z,15.90
2018-11-07T03:21:05.049Z,15.37
2018-11-07T03:23:32.421Z,13.67
2018-11-07T03:25:59.824Z,14.47
2018-11-07T03:28:27.181Z,12.97
2018-11-07T03:30:54.563Z,14.27
2018-11-07T03:33:22.017Z,13.87
2018-11-07T03:35:49.399Z,13.93
2018-11-07T03:38:16.854Z,14.47
2018-11-07T03:40:44.260Z,14.53
2018-11-07T03:43:11.659Z,14.43
2018-11-07T03:45:44.453Z,13.83
2018-11-07T03:48:11.822Z,15.27
2018-11-07T03:50:39.290Z,15.63
2018-11-07T03:53:06.969Z,14.30
2018-11-07T03:55:34.337Z,15.93
2018-11-07T03:58:01.749Z,14.80
2018-11-07T04:00:29.176Z,19.60
2018-11-07T04:02:56.549Z,15.57
2018-11-07T04:05:23.981Z,14.77
2018-11-07T04:07:51.393Z,15.47
2018-11-07T04:10:18.769Z,16.57
2018-11-07T04:12:46.137Z,17.00
2018-11-07T04:15:13.589Z,15.83
2018-11-07T04:17:40.997Z,15.67
2018-11-07T04:20:09.352Z,16.00
2018-11-07T04:22:36.769Z,18.10
2018-11-07T04:25:04.204Z,15.67
2018-11-07T04:27:31.614Z,16.33
2018-11-07T04:29:59.075Z,15.43
2018-11-07T04:32:26.485Z,15.83
2018-11-07T04:34:53.845Z,15.70
2018-11-07T04:37:21.347Z,17.10
2018-11-07T04:39:48.721Z,15.97
2018-11-07T04:42:16.084Z,15.67
2018-11-07T04:44:43.484Z,15.33
2018-11-07T04:47:10.851Z,15.47
2018-11-07T04:49:38.217Z,15.63
2018-11-07T04:52:05.652Z,15.63
2018-11-07T04:54:33.062Z,17.90
2018-11-07T04:57:00.436Z,17.37
2018-11-07T04:59:27.838Z,16.47
2018-11-07T05:01:55.217Z,31.40
2018-11-07T05:04:22.600Z,30.27
2018-11-07T05:06:50.017Z,24.70
2018-11-07T05:09:17.451Z,22.60
2018-11-07T05:11:44.805Z,17.20
2018-11-07T05:14:12.189Z,16.63
2018-11-07T05:16:39.593Z,17.50
2018-11-07T05:19:07.173Z,18.27
2018-11-07T05:21:34.630Z,16.73
2018-11-07T05:24:01.991Z,16.73
2018-11-07T05:26:29.353Z,15.83
2018-11-07T05:28:56.768Z,15.33
2018-11-07T05:31:24.407Z,15.80
2018-11-07T05:33:51.780Z,15.90
2018-11-07T05:36:19.188Z,15.93
2018-11-07T05:38:46.632Z,17.20
2018-11-07T05:41:14.110Z,15.53
2018-11-07T05:43:41.501Z,15.73
2018-11-07T05:46:08.916Z,16.17
2018-11-07T05:48:36.283Z,16.20
2018-11-07T05:51:03.697Z,15.00
2018-11-07T05:53:31.085Z,17.47
2018-11-07T05:55:58.453Z,16.57
2018-11-07T05:58:25.961Z,17.23
2018-11-07T06:00:53.422Z,16.40
2018-11-07T06:03:20.780Z,15.97
2018-11-07T06:05:48.181Z,17.00
2018-11-07T06:08:15.604Z,18.23
2018-11-07T06:10:42.965Z,17.73
2018-11-07T06:13:10.470Z,17.37
2018-11-07T06:15:37.845Z,18.47
2018-11-07T06:18:05.225Z,16.87
2018-11-07T06:20:32.613Z,16.10
2018-11-07T06:23:00.013Z,16.63
2018-11-07T06:25:27.685Z,17.07
2018-11-07T06:27:55.065Z,16.37
2018-11-07T06:30:22.460Z,16.83
2018-11-07T06:32:49.813Z,16.53
2018-11-07T06:35:17.229Z,15.83
2018-11-07T06:37:44.611Z,16.93
2018-11-07T06:40:12.366Z,16.73
2018-11-07T06:42:39.856Z,16.43
2018-11-07T06:45:07.950Z,17.47
2018-11-07T06:47:35.314Z,16.33
2018-11-07T06:50:02.728Z,16.03
2018-11-07T06:52:30.112Z,15.80
2018-11-07T06:54:57.510Z,17.13
2018-11-07T06:57:24.921Z,16.07
2018-11-07T06:59:52.291Z,15.37
2018-11-07T07:05:36.428Z,15.10
2018-11-07T07:08:03.842Z,15.27
2018-11-07T07:10:31.225Z,14.53
2018-11-07T07:12:58.640Z,15.03
2018-11-07T07:15:26.006Z,14.77
2018-11-07T07:17:53.384Z,14.40
2018-11-07T07:20:21.405Z,15.47
2018-11-07T07:22:49.343Z,15.30
2018-11-07T07:25:16.953Z,15.33
2018-11-07T07:27:45.061Z,14.87
2018-11-07T07:30:13.488Z,14.73
2018-11-07T07:32:41.826Z,16.47
2018-11-07T07:35:09.277Z,15.60
2018-11-07T07:37:36.663Z,15.47
2018-11-07T07:40:04.581Z,14.90
2018-11-07T07:42:32.010Z,14.97
2018-11-07T07:44:59.382Z,16.57
2018-11-07T07:47:26.752Z,15.53
2018-11-07T07:49:54.149Z,15.63
2018-11-07T07:52:21.673Z,14.83
2018-11-07T07:54:49.108Z,15.30
2018-11-07T07:57:16.522Z,15.90
2018-11-07T07:59:43.885Z,17.07
2018-11-07T08:02:11.260Z,15.47
2018-11-07T08:04:38.689Z,16.17
2018-11-07T08:07:06.234Z,16.33
2018-11-07T08:09:33.466Z,15.97
2018-11-07T08:12:00.874Z,15.70
2018-11-07T08:14:28.253Z,15.37
2018-11-07T08:16:55.630Z,15.87
2018-11-07T08:19:23.036Z,16.77
2018-11-07T08:21:50.421Z,15.77
2018-11-07T08:24:17.786Z,15.43
2018-11-07T08:26:45.548Z,14.73
2018-11-07T08:29:12.954Z,14.37
2018-11-07T08:31:40.446Z,15.23
2018-11-07T08:34:07.869Z,14.90
2018-11-07T08:36:35.340Z,15.97
2018-11-07T08:39:03.108Z,16.53
2018-11-07T08:41:30.602Z,16.97
2018-11-07T08:43:57.965Z,16.27
2018-11-07T08:46:25.338Z,15.50
2018-11-07T08:48:52.770Z,16.63
2018-11-07T08:51:20.193Z,15.00
2018-11-07T08:53:47.583Z,14.73
2018-11-07T08:56:15.144Z,14.57
2018-11-07T08:58:42.513Z,15.00
2018-11-07T09:01:10.104Z,14.97
2018-11-07T09:03:37.453Z,15.37
2018-11-07T09:06:04.857Z,14.90
2018-11-07T09:08:32.237Z,15.10
2018-11-07T09:10:59.632Z,15.57
2018-11-07T09:13:27.038Z,15.23
2018-11-07T09:15:54.436Z,14.07
2018-11-07T09:18:21.827Z,15.27
2018-11-07T09:20:49.185Z,14.33
2018-11-07T09:23:16.545Z,15.70
2018-11-07T09:25:44.109Z,14.33
2018-11-07T09:28:11.522Z,15.33
2018-11-07T09:30:38.898Z,15.10
2018-11-07T09:33:06.297Z,15.63
2018-11-07T09:35:33.661Z,14.67
2018-11-07T09:38:01.049Z,14.40
2018-11-07T09:40:28.435Z,14.57
2018-11-07T09:42:55.789Z,14.73
2018-11-07T09:45:23.529Z,15.00
2018-11-07T09:47:50.942Z,14.70
2018-11-07T09:50:18.885Z,14.03
2018-11-07T09:52:46.445Z,14.73
2018-11-07T09:55:18.082Z,14.90
2018-11-07T09:57:45.446Z,15.67
2018-11-07T10:00:13.928Z,14.10
2018-11-07T10:02:41.630Z,14.30
2018-11-07T10:05:09.765Z,14.97
2018-11-07T10:07:37.727Z,13.33
2018-11-07T10:10:06.076Z,13.90
2018-11-07T10:12:33.417Z,14.13
2018-11-07T10:15:00.781Z,13.80
2018-11-07T10:17:28.203Z,14.30
2018-11-07T10:19:55.568Z,14.20
2018-11-07T10:22:22.936Z,14.57
2018-11-07T10:24:50.340Z,14.50
2018-11-07T10:27:18.095Z,13.73
2018-11-07T10:29:45.752Z,15.20
2018-11-07T10:32:13.026Z,13.73
2018-11-07T10:34:40.434Z,13.70
2018-11-07T10:37:07.821Z,13.93
2018-11-07T10:39:35.254Z,14.30
2018-11-07T10:42:02.614Z,13.13
2018-11-07T10:44:30.048Z,12.97
2018-11-07T10:46:57.427Z,15.87
2018-11-07T10:49:24.785Z,13.37
2018-11-07T10:51:52.305Z,13.33
2018-11-07T10:54:19.896Z,14.00
2018-11-07T10:56:47.245Z,13.77
2018-11-07T10:59:14.623Z,14.63
2018-11-07T11:01:47.391Z,14.37
2018-11-07T11:04:15.029Z,14.53
2018-11-07T11:06:42.390Z,14.70
2018-11-07T11:09:09.765Z,14.07
2018-11-07T11:11:37.310Z,15.10
2018-11-07T11:14:04.895Z,15.63
2018-11-07T11:16:32.289Z,15.70
2018-11-07T11:18:59.645Z,14.50
2018-11-07T11:21:27.009Z,13.90
2018-11-07T11:23:54.421Z,14.70
2018-11-07T11:26:21.877Z,15.27
2018-11-07T11:28:49.403Z,15.03
2018-11-07T11:31:16.805Z,15.10
2018-11-07T11:33:44.340Z,15.43
2018-11-07T11:36:11.701Z,15.60
2018-11-07T11:38:39.146Z,15.40
2018-11-07T11:41:06.544Z,15.73
2018-11-07T11:43:33.917Z,14.37
2018-11-07T11:46:01.309Z,14.93
2018-11-07T11:48:28.677Z,15.73
2018-11-07T11:50:56.066Z,15.20
2018-11-07T11:53:23.448Z,15.47
2018-11-07T11:55:50.814Z,15.53
2018-11-07T11:58:18.201Z,15.47
2018-11-07T12:00:45.613Z,14.83
2018-11-07T12:03:12.995Z,16.63
2018-11-07T12:05:40.352Z,14.83
2018-11-07T12:08:07.766Z,15.70
2018-11-07T12:10:35.136Z,15.30
2018-11-07T12:13:02.506Z,16.03
2018-11-07T12:15:30.053Z,16.43
2018-11-07T12:17:57.658Z,16.00
2018-11-07T12:20:25.062Z,15.40
2018-11-07T12:22:52.503Z,16.70
2018-11-07T12:25:20.793Z,16.00
2018-11-07T12:27:48.160Z,16.00
2018-11-07T12:30:16.992Z,15.70
2018-11-07T12:32:45.622Z,17.07
2018-11-07T12:35:13.324Z,14.47
2018-11-07T12:37:41.125Z,14.20
2018-11-07T12:40:09.424Z,13.33
2018-11-07T12:42:37.110Z,13.33
2018-11-07T12:45:04.957Z,13.27
2018-11-07T12:47:32.337Z,13.80
2018-11-07T12:49:59.848Z,14.03
2018-11-07T12:52:27.165Z,12.77
2018-11-07T12:54:54.582Z,13.13
2018-11-07T12:57:22.051Z,13.53
2018-11-07T12:59:49.434Z,13.67
2018-11-07T13:02:16.867Z,13.93
2018-11-07T13:04:44.312Z,13.77
2018-11-07T13:07:11.729Z,13.30
2018-11-07T13:09:39.220Z,12.87
2018-11-07T13:12:06.593Z,13.87
2018-11-07T13:14:34.039Z,14.50
2018-11-07T13:17:01.421Z,13.43
2018-11-07T13:19:28.915Z,13.67
2018-11-07T13:21:56.849Z,14.50
2018-11-07T13:24:24.238Z,13.30
2018-11-07T13:26:51.622Z,13.53
2018-11-07T13:29:19.061Z,13.30
2018-11-07T13:31:46.610Z,13.07
2018-11-07T13:34:14.725Z,14.60
2018-11-07T13:36:42.205Z,12.57
2018-11-07T13:39:11.632Z,12.67
2018-11-07T13:41:38.690Z,11.37
2018-11-07T13:44:06.185Z,11.37
2018-11-07T13:46:33.545Z,12.00
2018-11-07T13:49:00.922Z,11.83
2018-11-07T13:51:28.333Z,13.53
2018-11-07T13:53:55.741Z,12.53
2018-11-07T13:56:23.281Z,11.93
2018-11-07T13:58:50.682Z,12.90
2018-11-07T14:01:18.082Z,12.20
2018-11-07T14:03:45.461Z,12.47
2018-11-07T14:06:12.913Z,12.93
2018-11-07T14:08:40.313Z,12.57
2018-11-07T14:11:07.689Z,12.57
2018-11-07T14:13:35.113Z,12.47
2018-11-07T14:16:02.666Z,13.33
2018-11-07T14:18:30.053Z,13.13
2018-11-07T14:20:57.462Z,11.73
2018-11-07T14:23:24.873Z,13.73
2018-11-07T14:25:52.250Z,12.83
2018-11-07T14:28:19.873Z,13.23
2018-11-07T14:30:47.183Z,13.10
2018-11-07T14:33:14.711Z,12.73
2018-11-07T14:35:42.113Z,13.33
2018-11-07T14:38:09.477Z,13.43
2018-11-07T14:40:36.885Z,13.13
2018-11-07T14:43:04.321Z,13.37
2018-11-07T14:45:31.686Z,12.97
2018-11-07T14:47:59.051Z,13.10
2018-11-07T14:50:26.517Z,12.40
2018-11-07T14:52:53.889Z,13.13
2018-11-07T14:55:21.272Z,14.20
2018-11-07T14:57:48.697Z,14.53
2018-11-07T15:00:16.821Z,12.33
2018-11-07T15:02:44.755Z,12.80
2018-11-07T15:05:13.314Z,13.63
2018-11-07T15:07:41.388Z,13.70
2018-11-07T15:10:09.777Z,13.20
2018-11-07T15:12:37.276Z,14.63
2018-11-07T15:15:05.281Z,14.23
2018-11-07T15:17:32.664Z,14.63
2018-11-07T15:20:00.099Z,14.90
2018-11-07T15:22:27.476Z,16.30
2018-11-07T15:24:54.938Z,15.17
2018-11-07T15:27:22.413Z,14.93
2018-11-07T15:29:49.779Z,16.37
2018-11-07T15:32:17.170Z,16.60
2018-11-07T15:34:44.725Z,14.70
2018-11-07T15:37:12.152Z,15.23
2018-11-07T15:39:39.562Z,15.03
2018-11-07T15:42:06.966Z,16.90
2018-11-07T15:44:34.344Z,16.27
2018-11-07T15:47:01.720Z,16.83
2018-11-07T15:49:29.165Z,16.07
2018-11-07T15:51:56.611Z,17.17
2018-11-07T15:54:24.009Z,16.60
2018-11-07T15:56:51.449Z,15.60
2018-11-07T15:59:18.919Z,16.63
2018-11-07T16:01:46.287Z,17.10
2018-11-07T16:04:13.883Z,17.77
2018-11-07T16:06:41.328Z,18.53
2018-11-07T16:09:09.311Z,19.90
2018-11-07T16:11:36.697Z,19.03
2018-11-07T16:14:04.262Z,21.57
2018-11-07T16:16:31.657Z,20.93
2018-11-07T16:18:59.104Z,20.67
2018-11-07T16:21:26.569Z,20.90
2018-11-07T16:23:54.395Z,22.60
2018-11-07T16:26:21.913Z,23.43
2018-11-07T16:28:49.383Z,23.87
2018-11-07T16:31:16.856Z,26.27
2018-11-07T16:33:44.270Z,25.73
2018-11-07T16:36:11.797Z,26.47
2018-11-07T16:38:39.205Z,26.17
2018-11-07T16:41:06.788Z,26.20
2018-11-07T16:43:34.226Z,25.93
2018-11-07T16:46:01.600Z,25.27
2018-11-07T16:48:29.008Z,24.10
2018-11-07T16:50:56.432Z,21.93
2018-11-07T16:53:23.801Z,22.77
2018-11-07T16:55:51.333Z,22.50
2018-11-07T16:58:18.717Z,23.77
2018-11-07T17:00:46.144Z,23.37
2018-11-07T17:03:13.666Z,20.70
2018-11-07T17:05:41.032Z,21.50
2018-11-07T17:08:08.393Z,22.67
2018-11-07T17:10:35.936Z,22.53
2018-11-07T17:13:03.396Z,21.90
2018-11-07T17:15:30.939Z,21.07
2018-11-07T17:17:58.395Z,22.40
2018-11-07T17:20:25.771Z,22.23
2018-11-07T17:22:53.145Z,23.40
2018-11-07T17:25:20.554Z,24.03
2018-11-07T17:27:48.111Z,23.50
2018-11-07T17:30:16.757Z,25.40
2018-11-07T17:32:44.211Z,25.67
2018-11-07T17:35:14.635Z,24.60
2018-11-07T17:37:42.331Z,27.23
2018-11-07T17:40:12.161Z,24.80
2018-11-07T17:42:39.641Z,24.17
2018-11-07T17:45:14.975Z,24.27
2018-11-07T17:47:42.780Z,22.13
2018-11-07T17:50:11.509Z,21.90
2018-11-07T17:52:40.176Z,21.63
2018-11-07T17:55:08.066Z,21.13
2018-11-07T17:57:35.478Z,22.57
2018-11-07T18:00:03.066Z,23.50
2018-11-07T18:02:30.729Z,22.67
2018-11-07T18:04:58.105Z,22.63
2018-11-07T18:07:25.536Z,21.47
2018-11-07T18:09:52.982Z,21.97
2018-11-07T18:12:20.333Z,23.07
2018-11-07T18:14:47.802Z,22.77
2018-11-07T18:17:15.177Z,23.90
2018-11-07T18:22:59.242Z,22.13
2018-11-07T18:25:26.639Z,22.20
2018-11-07T18:31:10.612Z,20.47
2018-11-07T18:33:38.019Z,19.10
2018-11-07T18:36:05.408Z,18.47
2018-11-07T18:38:32.817Z,18.63
2018-11-07T18:41:00.220Z,18.57
2018-11-07T18:46:44.645Z,18.90
2018-11-07T18:52:29.101Z,19.43
2018-11-07T18:58:13.269Z,18.23
2018-11-07T19:00:40.660Z,19.53
2018-11-07T19:06:24.523Z,17.83
2018-11-07T19:08:53.143Z,18.00
2018-11-07T19:11:20.529Z,17.80
2018-11-07T19:13:47.977Z,18.10
2018-11-07T19:16:15.379Z,20.20
2018-11-07T19:18:42.757Z,20.47
2018-11-07T19:21:10.157Z,20.03
2018-11-07T19:23:37.615Z,19.23
2018-11-07T19:29:21.965Z,18.90
2018-11-07T19:31:49.380Z,20.13
2018-11-07T19:34:16.782Z,18.60
2018-11-07T19:36:44.233Z,16.80
2018-11-07T19:39:37.200Z,17.47
2018-11-07T19:42:05.161Z,18.77
2018-11-07T19:44:32.516Z,19.33
2018-11-07T19:53:33.502Z,18.20
2018-11-07T20:02:34.562Z,17.83
2018-11-07T20:05:01.965Z,15.97
2018-11-07T20:07:29.405Z,17.03
2018-11-07T20:09:57.306Z,17.67
2018-11-07T20:12:24.680Z,18.40
2018-11-07T20:14:52.065Z,18.93
2018-11-07T20:17:19.478Z,17.50
2018-11-07T20:19:46.946Z,17.23
2018-11-07T20:28:41.897Z,18.80
2018-11-07T20:31:09.766Z,18.97
2018-11-07T20:33:37.138Z,20.03
2018-11-07T20:39:21.752Z,19.63
2018-11-07T20:41:49.214Z,20.73
2018-11-07T20:44:16.622Z,20.90
2018-11-07T20:46:44.049Z,19.73
2018-11-07T20:49:11.437Z,20.20
2018-11-07T20:51:38.841Z,20.63
2018-11-07T20:54:06.284Z,20.53
2018-11-07T20:56:33.639Z,21.80
2018-11-07T20:59:01.049Z,21.83
2018-11-07T21:01:28.455Z,21.70
2018-11-07T21:03:55.909Z,23.90
2018-11-07T21:06:23.289Z,23.90
2018-11-07T21:08:50.718Z,23.10
2018-11-07T21:11:18.140Z,23.30
2018-11-07T21:13:45.547Z,24.73
2018-11-07T21:16:12.937Z,23.73
2018-11-07T21:18:40.353Z,24.90
2018-11-07T21:21:07.715Z,25.20
2018-11-07T21:23:35.134Z,26.07
2018-11-07T21:26:02.537Z,24.23
2018-11-07T21:28:30.001Z,25.77
2018-11-07T21:34:13.954Z,27.10
2018-11-07T21:39:57.901Z,25.63
2018-11-07T21:42:34.983Z,26.70
2018-11-07T21:47:57.182Z,25.07
2018-11-07T21:50:59.234Z,26.33
2018-11-07T21:56:41.777Z,27.10
2018-11-07T21:59:09.149Z,27.40
2018-11-07T22:01:36.540Z,28.03
2018-11-07T22:04:04.104Z,29.30
2018-11-07T22:06:31.528Z,27.30
2018-11-07T22:08:58.925Z,28.63
2018-11-07T22:11:26.345Z,27.57
2018-11-07T22:13:53.726Z,27.40
2018-11-07T22:16:21.135Z,28.57
2018-11-07T22:18:48.552Z,27.77
2018-11-07T22:21:15.966Z,28.37
2018-11-07T22:23:43.342Z,28.80
2018-11-07T22:26:10.742Z,27.33
2018-11-07T22:28:38.124Z,27.27
2018-11-07T22:31:05.769Z,27.57
2018-11-07T22:33:33.193Z,28.47
2018-11-07T22:36:00.577Z,33.37
2018-11-07T22:38:27.958Z,32.00
2018-11-07T22:40:55.389Z,30.80
2018-11-07T22:43:22.783Z,35.20
2018-11-07T22:45:50.165Z,30.90
2018-11-07T22:48:17.573Z,28.93
2018-11-07T22:50:44.991Z,29.40
2018-11-07T22:53:12.350Z,29.03
2018-11-07T22:55:39.759Z,30.63
2018-11-07T22:58:07.237Z,29.83
2018-11-07T23:00:40.222Z,29.37
2018-11-07T23:03:07.614Z,28.23
2018-11-07T23:05:35.009Z,30.80
2018-11-07T23:08:02.438Z,29.27
2018-11-07T23:10:29.937Z,28.87
2018-11-07T23:12:57.320Z,29.50
2018-11-07T23:15:30.121Z,35.67
2018-11-07T23:17:57.493Z,31.00
2018-11-07T23:20:24.909Z,28.93
2018-11-07T23:22:52.322Z,30.60
2018-11-07T23:25:19.697Z,28.00
2018-11-07T23:27:47.077Z,30.27
2018-11-07T23:30:14.605Z,29.87
2018-11-07T23:32:42.045Z,34.37
2018-11-07T23:35:09.432Z,33.57
2018-11-07T23:37:36.978Z,37.90
2018-11-07T23:40:04.766Z,32.37
2018-11-07T23:42:32.201Z,33.57
2018-11-07T23:44:59.616Z,33.53
2018-11-07T23:47:27.078Z,31.30
2018-11-07T23:49:54.381Z,33.80
2018-11-07T23:52:26.997Z,35.40
2018-11-07T23:54:54.473Z,34.20
2018-11-07T23:57:21.914Z,33.10
2018-11-07T23:59:49.289Z,34.77
